Time;durP1;ratioP1;P1;durP2;ratioP2;P2;SDS_P1;SDS_P2;PMS_P1;PMS_P2;Temp;Humidity;BMP_temperature;BMP_pressure;BME280_temperature;BME280_humidity;BME280_pressure;Samples;Min_cycle;Max_cycle;Signal;HPM_P1;HPM_P2
2022/10/25 00:01:48;;;;;;;7.63;3.83;;;11.20;99.90;;;;;;6126792;19;19939;-78
2022/10/25 00:03:55;;;;;;;12.05;3.72;;;11.00;99.90;;;;;;6127685;19;19942;-78
2022/10/25 00:05:59;;;;;;;12.23;3.95;;;11.10;99.90;;;;;;6130029;19;19922;-79
2022/10/25 00:08:03;;;;;;;11.05;4.90;;;11.20;99.90;;;;;;6126730;19;19938;-78
2022/10/25 00:10:08;;;;;;;8.45;4.28;;;11.10;99.90;;;;;;6128450;19;20367;-79
2022/10/25 00:12:12;;;;;;;9.43;4.50;;;;;;;;;;6128122;19;20291;-79
2022/10/25 00:14:18;;;;;;;11.93;4.15;;;11.40;99.90;;;;;;6126573;19;20263;-78
2022/10/25 00:16:24;;;;;;;12.73;5.20;;;11.10;99.90;;;;;;6128168;19;20307;-78
2022/10/25 00:18:28;;;;;;;10.48;4.72;;;11.20;99.90;;;;;;6127197;19;19925;-78
2022/10/25 00:20:37;;;;;;;11.88;4.97;;;11.10;99.90;;;;;;6128251;19;20308;-79
2022/10/25 00:22:41;;;;;;;9.77;4.72;;;11.00;99.90;;;;;;6126642;19;19918;-78
2022/10/25 00:24:45;;;;;;;11.07;4.80;;;;;;;;;;6128846;19;19940;-78
2022/10/25 00:26:49;;;;;;;12.73;5.00;;;11.10;99.90;;;;;;6126803;19;19943;-79
2022/10/25 00:28:55;;;;;;;14.52;5.13;;;11.50;99.90;;;;;;6127376;19;19945;-78
2022/10/25 00:31:02;;;;;;;9.63;5.50;;;11.20;99.90;;;;;;6127264;19;19911;-79
2022/10/25 00:33:06;;;;;;;10.38;4.43;;;10.90;99.90;;;;;;6128318;19;20272;-79
2022/10/25 00:35:11;;;;;;;11.55;4.60;;;11.20;99.90;;;;;;6125591;19;20332;-79
2022/10/25 00:37:17;;;;;;;10.50;4.70;;;11.00;99.90;;;;;;6126534;19;19918;-78
2022/10/25 00:39:21;;;;;;;12.52;5.05;;;;;;;;;;6127139;19;19914;-79
2022/10/25 00:41:27;;;;;;;14.05;5.40;;;11.20;99.90;;;;;;6126195;19;19914;-79
2022/10/25 00:43:37;;;;;;;10.88;5.22;;;11.00;99.90;;;;;;6127501;19;19919;-79
2022/10/25 00:45:41;;;;;;;15.07;5.00;;;11.50;99.90;;;;;;6128752;19;19966;-79
2022/10/25 00:47:49;;;;;;;10.20;5.28;;;11.30;99.90;;;;;;6127248;19;19906;-79
2022/10/25 00:49:59;;;;;;;11.98;6.25;;;11.20;99.90;;;;;;6127666;19;19945;-78
2022/10/25 00:52:06;;;;;;;10.77;5.32;;;11.20;99.90;;;;;;6132999;19;19922;-78
2022/10/25 00:54:16;;;;;;;13.63;5.93;;;11.40;99.90;;;;;;6132842;19;20264;-79
2022/10/25 00:56:24;;;;;;;14.02;5.40;;;11.00;99.90;;;;;;6132393;19;19938;-78
2022/10/25 00:58:31;;;;;;;12.10;6.20;;;11.00;99.90;;;;;;6133737;19;19911;-79
2022/10/25 01:00:35;;;;;;;15.90;6.00;;;10.90;99.90;;;;;;6130997;19;19915;-79
2022/10/25 01:02:39;;;;;;;13.05;5.75;;;11.00;99.90;;;;;;6133026;19;19941;-80
2022/10/25 01:04:44;;;;;;;15.25;6.30;;;10.90;99.90;;;;;;6130426;19;19937;-80
2022/10/25 01:06:51;;;;;;;12.30;5.57;;;11.00;99.90;;;;;;6131651;19;19927;-79
2022/10/25 01:08:56;;;;;;;11.50;6.47;;;11.00;99.90;;;;;;6133224;19;19915;-79
2022/10/25 01:11:03;;;;;;;16.55;6.53;;;11.00;99.90;;;;;;6133356;19;19922;-79
2022/10/25 01:13:07;;;;;;;13.15;6.05;;;10.80;99.90;;;;;;6131930;19;20368;-80
2022/10/25 01:15:12;;;;;;;12.98;6.22;;;10.50;99.90;;;;;;6132421;19;19914;-79
2022/10/25 01:17:26;;;;;;;13.07;7.22;;;11.30;99.90;;;;;;6132705;19;20276;-79
2022/10/25 01:19:49;;;;;;;14.88;6.82;;;11.00;99.90;;;;;;6132490;19;19910;-79
2022/10/25 01:21:58;;;;;;;20.50;7.28;;;10.90;99.90;;;;;;6130652;19;19923;-79
2022/10/25 01:24:21;;;;;;;17.13;7.63;;;11.00;99.90;;;;;;6131670;19;20296;-79
2022/10/25 01:26:48;;;;;;;13.13;6.55;;;11.50;99.90;;;;;;6131466;19;19926;-79
2022/10/25 01:29:06;;;;;;;15.60;6.90;;;11.30;99.90;;;;;;6132927;19;19923;-79
2022/10/25 01:31:25;;;;;;;19.50;7.82;;;11.50;99.90;;;;;;6134176;19;20833;-79
2022/10/25 01:33:35;;;;;;;17.95;8.30;;;11.40;99.90;;;;;;6135540;19;20346;-79
2022/10/25 01:35:51;;;;;;;16.55;7.88;;;10.70;99.90;;;;;;6130358;19;19918;-79
2022/10/25 01:38:08;;;;;;;18.60;8.13;;;11.40;99.90;;;;;;6134708;19;20344;-79
2022/10/25 01:40:19;;;;;;;17.80;7.88;;;9.80;99.90;;;;;;6133407;19;20348;-80
2022/10/25 01:42:31;;;;;;;15.20;7.90;;;11.20;99.90;;;;;;6132653;19;19939;-80
2022/10/25 01:44:45;;;;;;;18.02;8.30;;;11.40;99.90;;;;;;6130449;19;19925;-80
2022/10/25 01:46:55;;;;;;;17.30;8.23;;;11.80;99.90;;;;;;6133073;19;20280;-80
2022/10/25 01:49:05;;;;;;;20.27;8.60;;;11.80;99.90;;;;;;6130552;19;19933;-80
2022/10/25 01:51:12;;;;;;;20.52;10.30;;;12.00;99.90;;;;;;6130544;19;19949;-80
2022/10/25 01:53:16;;;;;;;19.98;9.23;;;11.10;99.90;;;;;;6132533;19;19945;-80
2022/10/25 01:55:24;;;;;;;16.73;8.23;;;12.00;99.90;;;;;;6130092;19;19919;-79
2022/10/25 01:57:45;;;;;;;19.65;9.45;;;11.90;99.90;;;;;;6134676;19;19946;-81
2022/10/25 02:00:06;;;;;;;21.80;8.98;;;11.70;99.90;;;;;;6135462;19;19921;-79
2022/10/25 02:02:18;;;;;;;21.02;9.40;;;12.20;99.90;;;;;;6134127;19;19927;-78
2022/10/25 02:04:33;;;;;;;18.30;8.80;;;12.20;99.90;;;;;;6134419;19;20379;-80
2022/10/25 02:06:41;;;;;;;;;;;11.70;99.90;;;;;;6135063;19;20345;-78
2022/10/25 02:08:49;;;;;;;19.90;8.35;;;11.70;99.90;;;;;;6129409;19;19938;-82
2022/10/25 02:11:03;;;;;;;22.67;9.32;;;12.20;99.90;;;;;;6129973;19;20234;-82
2022/10/25 02:13:15;;;;;;;18.20;8.95;;;11.70;99.90;;;;;;6129567;19;19946;-81
2022/10/25 02:15:25;;;;;;;18.73;8.80;;;12.40;99.90;;;;;;6129866;19;19925;-82
2022/10/25 02:17:35;;;;;;;17.38;8.60;;;11.90;99.90;;;;;;6132532;19;20340;-82
2022/10/25 02:19:42;;;;;;;16.02;8.27;;;12.00;99.90;;;;;;6130022;19;20276;-81
2022/10/25 02:21:48;;;;;;;14.48;8.80;;;12.00;99.90;;;;;;6131418;19;19915;-81
2022/10/25 02:23:54;;;;;;;15.93;8.40;;;12.00;99.90;;;;;;6128936;19;19954;-80
2022/10/25 02:26:00;;;;;;;17.10;8.57;;;12.00;99.90;;;;;;6130388;19;19940;-81
2022/10/25 02:28:07;;;;;;;14.10;7.80;;;12.10;99.90;;;;;;6132812;19;19922;-82
2022/10/25 02:30:13;;;;;;;17.73;8.40;;;12.00;99.90;;;;;;6131332;19;19926;-81
2022/10/25 02:32:17;;;;;;;17.98;8.55;;;;;;;;;;6129690;19;19915;-81
2022/10/25 02:34:23;;;;;;;14.57;7.30;;;12.00;99.90;;;;;;6131969;19;19922;-81
2022/10/25 02:36:27;;;;;;;18.17;8.15;;;11.90;99.90;;;;;;6128961;19;19930;-81
2022/10/25 02:38:31;;;;;;;19.02;8.63;;;11.90;99.90;;;;;;6129538;19;19923;-81
2022/10/25 02:40:35;;;;;;;15.90;7.90;;;11.90;99.90;;;;;;6131111;19;19954;-81
2022/10/25 02:42:39;;;;;;;19.75;8.25;;;12.30;99.90;;;;;;6129137;19;20313;-80
2022/10/25 02:44:44;;;;;;;18.98;8.43;;;12.30;99.90;;;;;;6130408;19;19926;-81
2022/10/25 02:46:48;;;;;;;14.63;7.85;;;12.40;99.90;;;;;;6130518;19;19918;-81
2022/10/25 02:48:52;;;;;;;15.13;7.53;;;12.00;99.90;;;;;;6128555;19;20336;-81
2022/10/25 02:50:59;;;;;;;12.90;7.07;;;11.90;99.90;;;;;;6129008;19;20332;-81
2022/10/25 02:53:03;;;;;;;14.13;7.05;;;12.40;99.90;;;;;;6129241;19;19923;-80
2022/10/25 02:55:08;;;;;;;13.18;6.75;;;12.00;99.90;;;;;;6127834;19;19934;-79
2022/10/25 02:57:12;;;;;;;14.52;6.78;;;12.20;99.90;;;;;;6128949;19;20311;-81
2022/10/25 02:59:15;;;;;;;16.70;7.78;;;12.20;99.90;;;;;;6129083;19;19942;-80
2022/10/25 03:01:20;;;;;;;13.48;7.10;;;12.10;99.90;;;;;;6128942;19;19918;-80
2022/10/25 03:03:24;;;;;;;13.63;6.95;;;12.50;99.90;;;;;;6127872;19;19914;-79
2022/10/25 03:05:28;;;;;;;11.32;6.22;;;12.20;99.90;;;;;;6125511;19;19950;-79
2022/10/25 03:07:35;;;;;;;11.80;6.38;;;12.10;99.90;;;;;;6129629;19;19918;-80
2022/10/25 03:09:38;;;;;;;12.80;6.68;;;12.30;99.90;;;;;;6130630;19;19954;-80
2022/10/25 03:11:42;;;;;;;17.90;7.05;;;11.80;99.90;;;;;;6128342;19;19941;-80
2022/10/25 03:13:46;;;;;;;11.35;6.68;;;12.10;99.90;;;;;;6129096;19;19949;-80
2022/10/25 03:15:50;;;;;;;17.25;6.97;;;12.30;99.90;;;;;;6128628;19;19915;-78
2022/10/25 03:17:54;;;;;;;14.02;7.20;;;12.20;99.90;;;;;;6128229;19;19922;-81
2022/10/25 03:19:58;;;;;;;18.23;7.05;;;;;;;;;;6128674;19;19938;-80
2022/10/25 03:22:02;;;;;;;12.80;6.20;;;;;;;;;;6129800;19;19915;-81
2022/10/25 03:24:09;;;;;;;14.77;6.80;;;12.00;99.90;;;;;;6129403;19;20361;-80
2022/10/25 03:26:13;;;;;;;16.17;6.93;;;11.90;99.90;;;;;;6127968;19;19919;-80
2022/10/25 03:28:16;;;;;;;15.20;6.85;;;12.10;99.90;;;;;;6127628;19;19958;-80
2022/10/25 03:30:20;;;;;;;16.33;6.53;;;;;;;;;;6128094;19;19942;-81
2022/10/25 03:32:24;;;;;;;15.57;7.40;;;12.30;99.90;;;;;;6130087;19;19923;-80
2022/10/25 03:34:28;;;;;;;15.93;6.47;;;12.50;99.90;;;;;;6129918;19;19918;-82
2022/10/25 03:36:32;;;;;;;11.93;6.45;;;12.20;99.90;;;;;;6126512;19;19925;-80
2022/10/25 03:38:36;;;;;;;15.23;6.95;;;11.90;99.90;;;;;;6129820;19;19922;-79
2022/10/25 03:40:43;;;;;;;14.50;6.90;;;11.80;99.90;;;;;;6127977;19;20367;-78
2022/10/25 03:42:47;;;;;;;12.82;6.50;;;12.20;99.90;;;;;;6129133;19;19926;-80
2022/10/25 03:44:53;;;;;;;12.60;6.50;;;12.20;99.90;;;;;;6126744;19;19922;-79
2022/10/25 03:46:57;;;;;;;17.92;7.38;;;12.40;99.90;;;;;;6127879;19;19919;-79
2022/10/25 03:49:01;;;;;;;14.35;6.70;;;;;;;;;;6128283;19;19940;-80
2022/10/25 03:51:05;;;;;;;11.82;6.32;;;12.30;99.90;;;;;;6129228;19;19921;-81
2022/10/25 03:53:09;;;;;;;12.05;6.38;;;12.00;99.90;;;;;;6128407;19;19914;-79
2022/10/25 03:55:13;;;;;;;18.88;6.95;;;12.20;99.90;;;;;;6129635;19;20340;-79
2022/10/25 03:57:19;;;;;;;13.68;6.45;;;12.20;99.90;;;;;;6130073;19;19915;-79
2022/10/25 03:59:23;;;;;;;12.38;5.88;;;12.00;99.90;;;;;;6130675;19;19919;-79
2022/10/25 04:01:27;;;;;;;12.88;6.10;;;12.20;99.90;;;;;;6127134;19;19922;-80
2022/10/25 04:03:31;;;;;;;15.10;6.82;;;11.90;99.90;;;;;;6131690;19;19937;-79
2022/10/25 04:05:35;;;;;;;15.77;6.43;;;12.10;99.90;;;;;;6127420;19;19923;-80
2022/10/25 04:07:38;;;;;;;11.40;6.80;;;12.20;99.90;;;;;;6129172;19;19946;-80
2022/10/25 04:09:42;;;;;;;13.75;6.22;;;11.90;99.90;;;;;;6129816;19;19922;-79
2022/10/25 04:11:46;;;;;;;14.07;7.75;;;12.40;99.90;;;;;;6129113;19;20332;-79
2022/10/25 04:13:53;;;;;;;12.07;6.95;;;12.30;99.90;;;;;;6128269;19;19919;-79
2022/10/25 04:15:57;;;;;;;11.40;6.40;;;;;;;;;;6128027;19;19934;-79
2022/10/25 04:18:01;;;;;;;13.82;6.55;;;12.20;99.90;;;;;;6128196;19;19947;-79
2022/10/25 04:20:05;;;;;;;13.48;6.28;;;12.50;99.90;;;;;;6129554;19;19922;-80
2022/10/25 04:22:09;;;;;;;15.52;6.50;;;11.90;99.90;;;;;;6129737;19;20365;-79
2022/10/25 04:24:13;;;;;;;14.02;6.13;;;12.10;99.90;;;;;;6129316;19;19923;-79
2022/10/25 04:26:18;;;;;;;15.82;6.43;;;12.10;99.90;;;;;;6128921;19;19914;-79
2022/10/25 04:28:22;;;;;;;12.95;6.00;;;12.10;99.90;;;;;;6133473;19;19926;-79
2022/10/25 04:30:29;;;;;;;17.95;6.57;;;12.10;99.90;;;;;;6136029;19;19922;-79
2022/10/25 04:32:33;;;;;;;15.35;7.55;;;12.20;99.90;;;;;;6134519;19;19942;-79
2022/10/25 04:34:37;;;;;;;12.48;5.53;;;12.00;99.90;;;;;;6137582;19;19945;-79
2022/10/25 04:36:41;;;;;;;15.13;5.80;;;12.10;99.90;;;;;;6133464;19;19937;-78
2022/10/25 04:38:45;;;;;;;11.95;6.55;;;12.20;99.90;;;;;;6133618;19;20244;-80
2022/10/25 04:40:55;;;;;;;12.30;6.13;;;12.10;99.90;;;;;;6133537;19;19922;-79
2022/10/25 04:43:01;;;;;;;14.73;7.40;;;11.90;99.90;;;;;;6135333;19;20312;-80
2022/10/25 04:45:06;;;;;;;13.55;6.10;;;;;;;;;;6133737;19;20014;-79
2022/10/25 04:47:12;;;;;;;15.27;5.72;;;12.10;99.90;;;;;;6136019;19;19930;-79
2022/10/25 04:49:17;;;;;;;12.88;5.45;;;11.60;99.90;;;;;;6135812;19;19918;-79
2022/10/25 04:51:21;;;;;;;15.20;6.32;;;11.80;99.90;;;;;;6138139;19;19941;-79
2022/10/25 04:53:25;;;;;;;16.30;6.53;;;12.00;99.90;;;;;;6141771;19;19922;-79
2022/10/25 04:55:30;;;;;;;14.52;5.78;;;11.90;99.90;;;;;;6138457;19;19937;-79
2022/10/25 04:57:34;;;;;;;13.25;5.50;;;11.60;99.90;;;;;;6134408;19;19942;-79
2022/10/25 04:59:38;;;;;;;13.00;5.18;;;12.10;99.90;;;;;;6133802;19;19931;-78
2022/10/25 05:01:42;;;;;;;11.13;5.22;;;11.90;99.90;;;;;;6131634;19;19974;-79
2022/10/25 05:03:48;;;;;;;16.52;5.47;;;11.90;99.90;;;;;;6132798;19;19918;-79
2022/10/25 05:05:52;;;;;;;12.02;5.25;;;11.90;99.90;;;;;;6132674;19;19918;-79
2022/10/25 05:07:56;;;;;;;11.35;5.22;;;12.20;99.90;;;;;;6132828;19;19929;-79
2022/10/25 05:10:00;;;;;;;15.13;5.30;;;11.70;99.90;;;;;;6132870;19;19922;-79
2022/10/25 05:12:04;;;;;;;11.75;5.45;;;;;;;;;;6131378;19;19925;-79
2022/10/25 05:14:08;;;;;;;11.25;5.13;;;11.60;99.90;;;;;;6133171;19;19933;-79
2022/10/25 05:16:16;;;;;;;14.15;5.05;;;11.70;99.90;;;;;;6132316;19;19926;-79
2022/10/25 05:18:20;;;;;;;13.52;5.30;;;;;;;;;;6133470;19;19985;-79
2022/10/25 05:20:26;;;;;;;18.95;5.93;;;11.90;99.90;;;;;;6134303;19;19925;-80
2022/10/25 05:22:30;;;;;;;18.02;5.15;;;11.70;99.90;;;;;;6130747;19;19925;-80
2022/10/25 05:24:34;;;;;;;15.65;6.82;;;12.00;99.90;;;;;;6131544;19;19918;-80
2022/10/25 05:26:38;;;;;;;14.73;5.82;;;11.80;99.90;;;;;;6131279;19;19922;-80
2022/10/25 05:28:43;;;;;;;15.43;5.28;;;11.70;99.90;;;;;;6132177;19;19922;-80
2022/10/25 05:30:47;;;;;;;16.40;6.57;;;11.80;99.90;;;;;;6134372;19;19922;-80
2022/10/25 05:32:51;;;;;;;14.57;5.80;;;11.70;99.90;;;;;;6130073;19;20015;-80
2022/10/25 05:34:55;;;;;;;12.68;5.53;;;11.70;99.90;;;;;;6129776;19;19982;-79
2022/10/25 05:37:02;;;;;;;15.30;5.70;;;11.90;99.90;;;;;;6126837;19;19922;-80
2022/10/25 05:39:06;;;;;;;16.55;5.72;;;11.90;99.90;;;;;;6132818;19;19924;-80
2022/10/25 05:41:11;;;;;;;15.82;5.68;;;11.70;99.90;;;;;;6130487;19;19919;-80
2022/10/25 05:43:15;;;;;;;12.15;5.72;;;11.70;99.90;;;;;;6131701;19;20026;-80
2022/10/25 05:45:20;;;;;;;15.23;6.22;;;11.60;99.90;;;;;;6132089;19;20325;-80
2022/10/25 05:47:24;;;;;;;16.00;5.45;;;11.60;99.90;;;;;;6129441;19;19924;-80
2022/10/25 05:49:28;;;;;;;16.48;6.68;;;12.00;99.90;;;;;;6130515;19;19931;-80
2022/10/25 05:51:33;;;;;;;13.85;5.95;;;11.50;99.90;;;;;;6130245;19;19942;-80
2022/10/25 05:53:44;;;;;;;10.48;5.53;;;11.70;99.90;;;;;;6131216;19;20291;-80
2022/10/25 05:55:48;;;;;;;14.18;5.88;;;12.10;99.90;;;;;;6130402;19;19990;-80
2022/10/25 05:57:53;;;;;;;16.80;6.65;;;11.70;99.90;;;;;;6130615;19;19945;-80
2022/10/25 05:59:57;;;;;;;14.48;5.75;;;;;;;;;;6129356;19;19922;-79
2022/10/25 06:02:01;;;;;;;13.38;5.57;;;11.70;99.90;;;;;;6130515;19;19923;-80
2022/10/25 06:04:05;;;;;;;16.25;6.20;;;12.10;99.90;;;;;;6129785;19;19932;-79
2022/10/25 06:06:10;;;;;;;14.05;6.20;;;11.70;99.90;;;;;;6130696;19;19922;-80
2022/10/25 06:08:14;;;;;;;15.45;5.88;;;11.90;99.90;;;;;;6129520;19;19946;-79
2022/10/25 06:10:21;;;;;;;14.82;6.03;;;11.90;99.90;;;;;;6129874;19;19945;-79
2022/10/25 06:12:25;;;;;;;17.27;6.47;;;11.90;99.90;;;;;;6133582;19;20341;-80
2022/10/25 06:14:28;;;;;;;16.17;5.97;;;11.70;99.90;;;;;;6129093;19;20036;-79
2022/10/25 06:16:32;;;;;;;13.98;6.35;;;11.70;99.90;;;;;;6128380;19;19918;-79
2022/10/25 06:18:38;;;;;;;19.67;6.85;;;11.70;99.90;;;;;;6129200;19;20357;-79
2022/10/25 06:20:41;;;;;;;12.98;6.28;;;11.80;99.90;;;;;;6130819;19;19930;-79
2022/10/25 06:22:45;;;;;;;12.93;6.28;;;11.90;99.90;;;;;;6129022;19;20412;-80
2022/10/25 06:24:49;;;;;;;13.82;6.80;;;11.90;99.90;;;;;;6130243;19;20209;-80
2022/10/25 06:26:56;;;;;;;16.65;6.20;;;12.10;99.90;;;;;;6131094;19;19930;-80
2022/10/25 06:29:01;;;;;;;17.05;6.72;;;11.80;99.90;;;;;;6131783;19;20354;-79
2022/10/25 06:31:06;;;;;;;11.38;7.38;;;11.80;99.90;;;;;;6129076;19;19946;-81
2022/10/25 06:33:10;;;;;;;15.75;6.88;;;11.90;99.90;;;;;;6132729;19;19928;-80
2022/10/25 06:35:14;;;;;;;21.95;6.65;;;11.60;99.90;;;;;;6125355;19;19978;-81
2022/10/25 06:37:18;;;;;;;14.05;6.38;;;11.60;99.90;;;;;;6125579;19;19922;-80
2022/10/25 06:39:22;;;;;;;15.57;6.88;;;12.00;99.90;;;;;;6132031;19;19926;-80
2022/10/25 06:41:30;;;;;;;13.93;6.25;;;11.80;99.90;;;;;;6130258;19;19918;-80
2022/10/25 06:43:37;;;;;;;13.35;6.10;;;11.80;99.90;;;;;;6130691;19;20335;-80
2022/10/25 06:45:43;;;;;;;13.07;7.10;;;11.80;99.90;;;;;;6130258;19;19953;-80
2022/10/25 06:47:47;;;;;;;11.75;6.13;;;11.90;99.90;;;;;;6129104;19;19918;-80
2022/10/25 06:49:51;;;;;;;12.95;5.22;;;11.70;99.90;;;;;;6130314;19;19923;-80
2022/10/25 06:51:55;;;;;;;12.45;6.13;;;11.80;99.90;;;;;;6131050;19;20265;-80
2022/10/25 06:54:00;;;;;;;12.52;6.32;;;11.70;99.90;;;;;;6129819;19;19923;-79
2022/10/25 06:56:05;;;;;;;11.90;5.28;;;11.70;99.90;;;;;;6130031;19;19922;-80
2022/10/25 06:58:09;;;;;;;13.90;5.25;;;;;;;;;;6129197;19;19923;-82
2022/10/25 07:00:16;;;;;;;18.63;5.82;;;11.80;99.90;;;;;;6130201;19;19950;-80
2022/10/25 07:02:20;;;;;;;13.55;5.80;;;11.90;99.90;;;;;;6130160;19;19922;-79
2022/10/25 07:04:24;;;;;;;16.88;5.85;;;12.00;99.90;;;;;;6130207;19;19915;-81
2022/10/25 07:06:34;;;;;;;14.10;5.00;;;12.10;99.90;;;;;;6130098;19;19929;-79
2022/10/25 07:08:39;;;;;;;10.98;4.57;;;11.90;99.90;;;;;;6130018;19;19929;-79
2022/10/25 07:10:43;;;;;;;9.50;4.50;;;;;;;;;;6130155;19;19926;-79
2022/10/25 07:12:47;;;;;;;13.52;4.40;;;;;;;;;;6129269;19;19962;-79
2022/10/25 07:14:51;;;;;;;9.43;5.15;;;12.40;99.90;;;;;;6130161;19;19950;-79
2022/10/25 07:16:58;;;;;;;12.57;4.07;;;11.90;99.90;;;;;;6129688;19;20269;-79
2022/10/25 07:19:03;;;;;;;12.63;4.47;;;12.00;99.90;;;;;;6129885;19;20352;-80
2022/10/25 07:21:09;;;;;;;8.05;3.33;;;12.40;99.90;;;;;;6128274;19;19923;-80
2022/10/25 07:23:13;;;;;;;10.45;4.85;;;12.50;99.90;;;;;;6130149;19;19922;-79
2022/10/25 07:25:17;;;;;;;8.93;4.75;;;12.20;99.90;;;;;;6129052;19;19922;-80
2022/10/25 07:27:21;;;;;;;12.05;4.45;;;12.40;99.90;;;;;;6128793;19;19919;-80
2022/10/25 07:29:25;;;;;;;14.52;4.25;;;12.30;99.90;;;;;;6128999;19;19914;-80
2022/10/25 07:31:31;;;;;;;9.38;3.78;;;12.20;99.90;;;;;;6129622;19;19933;-79
2022/10/25 07:33:38;;;;;;;12.18;4.70;;;12.30;99.90;;;;;;6129339;19;19918;-80
2022/10/25 07:35:42;;;;;;;10.48;4.28;;;12.00;99.90;;;;;;6131489;19;19918;-80
2022/10/25 07:37:46;;;;;;;8.82;3.45;;;12.10;99.90;;;;;;6133361;19;19930;-78
2022/10/25 07:39:49;;;;;;;11.85;3.83;;;12.20;99.90;;;;;;6132089;19;20339;-79
2022/10/25 07:41:53;;;;;;;14.80;4.00;;;12.70;99.90;;;;;;6134600;19;19938;-79
2022/10/25 07:43:57;;;;;;;11.02;3.88;;;12.40;99.90;;;;;;6133924;19;19922;-78
2022/10/25 07:46:02;;;;;;;16.15;4.40;;;12.60;99.90;;;;;;6134593;19;19974;-80
2022/10/25 07:48:06;;;;;;;10.70;4.25;;;12.60;99.90;;;;;;6130255;19;19915;-79
2022/10/25 07:50:13;;;;;;;12.60;3.90;;;12.70;99.90;;;;;;6129656;19;19930;-80
2022/10/25 07:52:18;;;;;;;9.45;3.67;;;;;;;;;;6127544;19;19919;-80
2022/10/25 07:54:22;;;;;;;9.20;3.88;;;;;;;;;;6127490;19;19974;-79
2022/10/25 07:56:26;;;;;;;11.95;3.67;;;12.40;99.90;;;;;;6129740;19;19982;-79
2022/10/25 07:58:30;;;;;;;10.07;3.90;;;;;;;;;;6125180;19;19937;-80
2022/10/25 08:00:34;;;;;;;16.60;4.65;;;;;;;;;;6125894;19;19919;-80
2022/10/25 08:02:38;;;;;;;12.30;5.07;;;12.50;99.90;;;;;;6126813;19;19932;-79
2022/10/25 08:04:42;;;;;;;15.98;5.55;;;12.60;99.90;;;;;;6126566;19;20330;-80
2022/10/25 08:06:48;;;;;;;7.95;4.15;;;12.50;99.90;;;;;;6129068;19;19922;-80
2022/10/25 08:08:52;;;;;;;13.02;4.43;;;13.10;99.90;;;;;;6127325;19;20259;-80
2022/10/25 08:10:56;;;;;;;13.25;4.22;;;12.90;99.90;;;;;;6129707;19;19918;-80
2022/10/25 08:13:00;;;;;;;11.05;5.03;;;12.60;99.90;;;;;;6126626;19;19923;-79
2022/10/25 08:15:04;;;;;;;12.95;3.60;;;12.60;99.90;;;;;;6126557;19;19918;-80
2022/10/25 08:17:08;;;;;;;11.55;3.47;;;12.50;99.90;;;;;;6127905;19;19918;-80
2022/10/25 08:19:12;;;;;;;14.63;4.72;;;;;;;;;;6123628;19;20283;-80
2022/10/25 08:21:16;;;;;;;16.58;4.30;;;12.80;99.90;;;;;;6127555;19;19919;-78
2022/10/25 08:23:24;;;;;;;10.95;4.10;;;12.90;99.90;;;;;;6120497;19;19941;-79
2022/10/25 08:25:28;;;;;;;12.95;4.40;;;12.90;99.90;;;;;;6111376;19;19941;-77
2022/10/25 08:27:33;;;;;;;14.23;4.15;;;12.60;99.90;;;;;;6124977;19;19946;-79
2022/10/25 08:29:37;;;;;;;12.65;3.90;;;12.50;99.90;;;;;;6127418;19;19942;-79
2022/10/25 08:31:41;;;;;;;10.93;3.80;;;13.40;99.90;;;;;;6127120;19;19925;-77
2022/10/25 08:33:45;;;;;;;13.65;4.50;;;13.10;99.90;;;;;;6127222;19;19919;-75
2022/10/25 08:35:49;;;;;;;15.18;4.40;;;;;;;;;;6126138;19;20359;-80
2022/10/25 08:37:53;;;;;;;16.27;4.28;;;13.50;99.90;;;;;;6128768;19;19929;-81
2022/10/25 08:39:59;;;;;;;13.82;3.95;;;13.10;99.90;;;;;;6128507;19;19978;-77
2022/10/25 08:42:03;;;;;;;11.20;3.67;;;13.50;99.90;;;;;;6126724;19;19961;-78
2022/10/25 08:44:30;;;;;;;13.50;3.70;;;12.80;99.90;;;;;;6125838;19;19918;-78
2022/10/25 08:46:38;;;;;;;8.77;3.90;;;12.90;99.90;;;;;;6127345;19;19915;-77
2022/10/25 08:48:48;;;;;;;13.35;3.60;;;13.40;99.90;;;;;;6125316;19;20403;-78
2022/10/25 08:50:55;;;;;;;15.55;4.18;;;13.00;99.90;;;;;;6127326;19;19915;-77
2022/10/25 08:53:03;;;;;;;10.18;3.80;;;13.30;99.90;;;;;;6124327;19;19926;-78
2022/10/25 08:55:16;;;;;;;14.73;4.22;;;13.00;99.90;;;;;;6126501;19;19994;-84
2022/10/25 08:57:25;;;;;;;17.15;4.20;;;13.40;99.90;;;;;;6130348;19;20340;-83
2022/10/25 08:59:32;;;;;;;10.38;3.55;;;13.50;99.90;;;;;;6128063;19;19922;-83
2022/10/25 09:01:48;;;;;;;9.63;3.92;;;13.50;99.90;;;;;;6125717;19;19926;-83
2022/10/25 09:03:52;;;;;;;16.20;5.75;;;12.90;99.90;;;;;;6125924;19;19914;-85
2022/10/25 09:06:08;;;;;;;15.07;4.55;;;13.40;99.90;;;;;;6126783;19;19911;-89
2022/10/25 09:08:39;;;;;;;14.02;4.15;;;13.70;99.90;;;;;;6124199;19;19942;-87
2022/10/25 09:10:54;;;;;;;11.45;4.50;;;13.60;99.90;;;;;;6126616;19;20312;-82
2022/10/25 09:13:04;;;;;;;12.27;4.82;;;13.60;99.90;;;;;;6130541;19;19918;-84
2022/10/25 09:15:16;;;;;;;13.90;4.18;;;13.30;99.90;;;;;;6131960;19;19940;-82
2022/10/25 09:17:22;;;;;;;11.85;4.05;;;13.60;99.90;;;;;;6130826;19;19911;-85
2022/10/25 09:19:33;;;;;;;12.07;3.58;;;13.10;99.90;;;;;;6131449;19;19926;-77
2022/10/25 09:21:43;;;;;;;14.05;4.03;;;13.30;99.90;;;;;;6130942;19;19921;-76
2022/10/25 09:23:58;;;;;;;13.50;4.57;;;13.60;99.90;;;;;;6130769;19;19914;-76
2022/10/25 09:26:06;;;;;;;;;;;13.80;99.90;;;;;;6133562;19;19940;-75
2022/10/25 09:28:18;;;;;;;12.93;4.40;;;14.30;99.90;;;;;;6131605;19;19926;-84
2022/10/25 09:30:22;;;;;;;13.60;3.80;;;13.90;99.90;;;;;;6132337;19;19914;-83
2022/10/25 09:32:31;;;;;;;10.27;3.63;;;13.90;99.90;;;;;;6131898;19;20347;-78
2022/10/25 09:34:35;;;;;;;16.85;3.92;;;13.60;99.90;;;;;;6128523;19;19926;-81
2022/10/25 09:36:45;;;;;;;13.90;3.72;;;13.90;99.90;;;;;;6128116;19;19911;-80
2022/10/25 09:38:54;;;;;;;9.55;3.45;;;13.70;99.90;;;;;;6129838;19;19922;-82
2022/10/25 09:41:05;;;;;;;13.73;3.83;;;14.00;99.90;;;;;;6131003;19;20333;-82
2022/10/25 09:43:16;;;;;;;9.55;3.35;;;13.80;99.90;;;;;;6133987;19;19918;-81
2022/10/25 09:45:25;;;;;;;9.98;3.40;;;13.40;99.90;;;;;;6129519;19;19989;-80
2022/10/25 09:47:41;;;;;;;11.05;3.28;;;15.00;99.90;;;;;;6131542;19;19970;-82
2022/10/25 09:49:52;;;;;;;7.40;3.13;;;14.70;99.90;;;;;;6132773;19;20493;-83
2022/10/25 09:52:06;;;;;;;8.88;3.45;;;13.60;99.90;;;;;;6129665;19;19914;-81
2022/10/25 09:54:18;;;;;;;16.08;3.55;;;14.10;99.90;;;;;;6130155;19;19938;-81
2022/10/25 09:56:24;;;;;;;12.32;3.08;;;14.30;99.90;;;;;;6132798;19;19940;-81
2022/10/25 09:58:31;;;;;;;15.05;3.65;;;14.50;99.90;;;;;;6127063;19;19919;-81
2022/10/25 10:00:40;;;;;;;12.05;3.30;;;14.30;99.90;;;;;;6132422;19;19950;-81
2022/10/25 10:02:44;;;;;;;9.13;2.75;;;13.70;99.90;;;;;;6130373;19;20336;-82
2022/10/25 10:04:48;;;;;;;10.02;2.70;;;14.10;99.90;;;;;;6128865;19;21763;-78
2022/10/25 10:06:53;;;;;;;8.43;3.08;;;14.60;99.90;;;;;;6128783;19;19946;-77
2022/10/25 10:09:02;;;;;;;12.80;2.75;;;14.60;99.90;;;;;;6130035;19;19914;-77
2022/10/25 10:11:06;;;;;;;11.75;2.72;;;13.90;99.90;;;;;;6128661;19;19985;-76
2022/10/25 10:13:19;;;;;;;7.15;2.58;;;14.60;99.90;;;;;;6125284;19;19927;-77
2022/10/25 10:15:27;;;;;;;13.65;3.08;;;13.70;99.90;;;;;;6126701;19;19919;-90
2022/10/25 10:17:32;;;;;;;10.98;2.92;;;14.30;99.90;;;;;;6154994;19;19911;-89
2022/10/25 10:19:36;;;;;;;10.40;2.22;;;14.90;99.90;;;;;;6155623;19;19966;-90
2022/10/25 10:21:44;;;;;;;7.43;2.00;;;14.00;99.90;;;;;;6155749;19;19914;-89
2022/10/25 10:23:55;;;;;;;8.02;2.65;;;14.30;99.90;;;;;;6148187;19;19911;-89
2022/10/25 10:26:01;;;;;;;8.15;2.55;;;14.50;99.90;;;;;;6155004;19;19925;-85
2022/10/25 10:28:05;;;;;;;10.07;2.35;;;14.20;99.90;;;;;;6131720;19;20359;-84
2022/10/25 10:30:23;;;;;;;7.35;2.00;;;14.50;99.90;;;;;;6130725;19;19914;-85
2022/10/25 10:32:29;;;;;;;8.45;2.67;;;14.40;99.90;;;;;;6132293;19;19919;-84
2022/10/25 10:34:38;;;;;;;9.73;2.90;;;14.60;99.90;;;;;;6128482;19;19982;-83
2022/10/25 10:36:44;;;;;;;8.63;2.15;;;;;;;;;;6125118;19;19919;-77
2022/10/25 10:38:48;;;;;;;11.05;2.10;;;14.80;99.90;;;;;;6128195;19;20021;-82
2022/10/25 10:40:52;;;;;;;4.43;1.70;;;14.90;99.90;;;;;;6137315;19;19921;-94
2022/10/25 10:42:56;;;;;;;9.30;1.95;;;14.70;99.90;;;;;;6130614;19;19910;-88
2022/10/25 10:45:14;;;;;;;4.85;1.67;;;14.40;99.90;;;;;;6132141;19;19911;-86
2022/10/25 10:47:22;;;;;;;4.05;1.70;;;14.20;99.90;;;;;;6130560;19;19949;-81
2022/10/25 10:49:37;;;;;;;7.40;2.05;;;14.60;99.90;;;;;;6130065;19;20252;-82
2022/10/25 10:51:44;;;;;;;5.97;1.95;;;14.60;99.90;;;;;;6131507;19;19954;-82
2022/10/25 10:53:48;;;;;;;6.60;1.83;;;14.30;99.90;;;;;;6128136;19;19970;-83
2022/10/25 10:55:54;;;;;;;4.57;1.58;;;14.30;99.90;;;;;;6130081;19;19922;-78
2022/10/25 10:58:04;;;;;;;8.50;1.73;;;14.30;99.90;;;;;;6127913;19;20027;-82